Dodgeville, Michigan
Current Conditions -  °F | °C
As of 10:53 AM on Thursday 23 Oct 2014 (Local Time) from KCMX Reporting Station
Overcast Overcast  
Wind Chill: 41°   Ceiling: 9000
Heat Index: 46°   Visibility: 10mi
Dew Point: 39°   Wind: 12mph
Humidity: 76%   Direction: 180°S
Pressure: 30.02"   Gusts: NA
Location:  47.09°N, 88.58°W
Report Text: KCMX 231453Z AUTO 18010KT 10SM SCT038 SCT050 OVC090 08/04 A3002 RMK AO2 RAE19 SLP174 P0001 60001 T00780039 56008
Loading
Personal Weather Stations






























Interactive Weather Map
Tropical Storm Tracking
New forecast layout! Learn more

10-Day Weather Forecast

Advertisements
Track Severe Weather on mobile